Time;durP1;ratioP1;P1;durP2;ratioP2;P2;SDS_P1;SDS_P2;PMS_P1;PMS_P2;Temp;Humidity;BMP_temperature;BMP_pressure;BME280_temperature;BME280_humidity;BME280_pressure;Samples;Min_cycle;Max_cycle;Signal;HPM_P1;HPM_P2
2023/04/01 00:00:49;;;;;;;23.93;13.43;;;;;;;8.05;61.27;97921.22;4994796;28;20093;-71
2023/04/01 00:03:15;;;;;;;23.83;13.47;;;;;;;7.98;61.68;97915.03;5011044;28;20045;-72
2023/04/01 00:05:41;;;;;;;29.80;14.43;;;;;;;8.07;62.08;97913.94;4974701;28;20171;-71
2023/04/01 00:08:08;;;;;;;25.83;13.90;;;;;;;8.17;61.97;97919.72;4961073;28;20484;-71
2023/04/01 00:10:34;;;;;;;30.40;14.30;;;;;;;8.14;61.57;97914.81;4978420;28;20042;-71
2023/04/01 00:13:00;;;;;;;50.53;13.73;;;;;;;8.09;61.12;97918.00;4977603;28;20042;-71
2023/04/01 00:15:26;;;;;;;29.03;14.87;;;;;;;8.06;61.54;97915.75;4971111;28;20373;-71
2023/04/01 00:17:52;;;;;;;78.30;15.80;;;;;;;7.94;61.84;97908.47;4981404;28;20097;-72
2023/04/01 00:20:18;;;;;;;27.87;14.77;;;;;;;8.06;61.86;97912.25;4996507;28;20116;-71
2023/04/01 00:22:46;;;;;;;32.80;15.90;;;;;;;8.13;62.31;97907.91;4981782;28;20065;-72
2023/04/01 00:25:12;;;;;;;29.10;15.00;;;;;;;8.34;62.18;97902.69;4983931;28;20057;-72
2023/04/01 00:27:38;;;;;;;37.57;14.23;;;;;;;8.27;61.32;97910.53;4999937;28;20056;-72
2023/04/01 00:30:07;;;;;;;27.13;13.73;;;;;;;8.48;61.42;97904.47;4984164;28;20199;-71
2023/04/01 00:32:33;;;;;;;23.87;12.83;;;;;;;8.38;60.64;97907.41;4983777;28;20053;-71
2023/04/01 00:35:00;;;;;;;25.83;12.40;;;;;;;8.07;60.86;97912.09;4999720;28;20088;-73
2023/04/01 00:37:27;;;;;;;26.83;13.03;;;;;;;8.13;61.81;97900.78;4967507;28;20041;-74
2023/04/01 00:39:54;;;;;;;23.07;11.60;;;;;;;8.24;61.93;97910.09;4999898;28;20148;-74
2023/04/01 00:42:21;;;;;;;27.87;13.00;;;;;;;7.95;61.99;97902.97;5032895;28;20046;-74
2023/04/01 00:44:51;;;;;;;27.27;13.30;;;;;;;8.39;62.35;97898.47;4967350;28;20045;-74
2023/04/01 00:47:17;;;;;;;28.60;14.23;;;;;;;8.18;61.81;97906.34;4999756;28;20126;-74
2023/04/01 00:49:46;;;;;;;30.83;14.53;;;;;;;8.41;61.79;97898.31;4983500;28;20515;-73
2023/04/01 00:52:15;;;;;;;26.07;13.07;;;;;;;8.35;61.84;97899.84;4981964;28;20077;-73
2023/04/01 00:54:43;;;;;;;25.37;13.70;;;;;;;8.44;61.67;97890.78;5000366;28;20045;-73
2023/04/01 00:57:13;;;;;;;25.20;13.63;;;;;;;8.38;62.22;97893.38;5000601;28;20045;-73
2023/04/01 00:59:44;;;;;;;28.37;12.87;;;;;;;8.48;62.18;97904.47;5000502;28;20494;-74
2023/04/01 01:02:12;;;;;;;26.50;13.47;;;;;;;8.22;62.29;97902.34;5016755;28;20060;-73
2023/04/01 01:04:38;;;;;;;27.60;14.13;;;;;;;8.10;62.19;97908.28;5000479;28;20052;-73
2023/04/01 01:07:27;;;;;;;24.07;13.23;;;;;;;8.61;62.13;97911.75;5000371;28;20037;-74
2023/04/01 01:09:58;;;;;;;26.37;13.53;;;;;;;8.63;61.92;97907.06;4976915;28;20509;-73
2023/04/01 01:12:27;;;;;;;27.37;13.73;;;;;;;8.12;61.46;97907.06;4944304;28;20137;-72
2023/04/01 01:15:02;;;;;;;26.67;13.27;;;;;;;8.77;62.32;97903.53;4949073;28;20057;-71
2023/04/01 01:17:36;;;;;;;30.00;15.00;;;;;;;8.15;61.74;97909.34;4996179;28;20050;-72
2023/04/01 01:20:36;;;;;;;30.97;15.40;;;;;;;8.78;61.79;97915.78;4947782;28;20057;-72
2023/04/01 01:23:16;;;;;;;28.97;15.20;;;;;;;8.08;60.94;97894.41;4979468;28;20045;-72
2023/04/01 01:25:51;;;;;;;33.95;16.38;;;;;;;8.65;61.49;97903.25;4979379;28;20077;-73
2023/04/01 01:28:32;;;;;;;33.00;15.57;;;;;;;8.66;62.19;97914.66;4979469;28;20049;-72
2023/04/01 01:31:00;;;;;;;;;;;;;;;8.81;61.43;97918.06;4979712;28;20096;-72
2023/04/01 01:34:03;;;;;;;41.03;17.03;;;;;;;8.62;62.21;97914.19;4963450;28;19948;-72
2023/04/01 01:36:35;;;;;;;33.63;16.17;;;;;;;8.33;62.38;97907.16;4978735;28;20057;-72
2023/04/01 01:39:04;;;;;;;31.87;15.73;;;;;;;8.09;62.44;97907.44;4980119;28;20056;-72
2023/04/01 01:41:32;;;;;;;36.97;15.60;;;;;;;8.12;62.94;97904.44;5006958;28;20065;-72
2023/04/01 01:43:59;;;;;;;31.53;16.33;;;;;;;8.21;62.81;97903.31;4983583;28;20048;-70
2023/04/01 01:46:27;;;;;;;33.13;15.57;;;;;;;8.24;63.10;97908.25;4999978;28;20087;-69
2023/04/01 01:48:54;;;;;;;29.73;14.13;;;;;;;8.06;63.29;97909.63;4999737;28;20102;-70
2023/04/01 01:51:21;;;;;;;31.23;15.67;;;;;;;8.13;63.28;97905.25;4999248;28;20045;-70
2023/04/01 01:53:47;;;;;;;30.77;15.70;;;;;;;7.85;63.11;97904.28;4999472;28;20092;-70
2023/04/01 01:56:18;;;;;;;76.60;17.77;;;;;;;8.13;63.38;97903.41;4983983;28;20072;-70
2023/04/01 01:58:47;;;;;;;35.10;15.93;;;;;;;8.14;63.81;97925.38;5032095;28;20050;-70
2023/04/01 02:01:19;;;;;;;240.17;22.63;;;;;;;8.09;63.64;97912.72;4999787;28;20041;-71
2023/04/01 02:03:45;;;;;;;221.40;21.40;;;;;;;7.84;63.69;97918.50;5015772;28;20049;-70
2023/04/01 02:06:15;;;;;;;125.73;19.17;;;;;;;8.00;64.10;97921.75;4981907;28;20045;-70
2023/04/01 02:08:56;;;;;;;40.47;17.57;;;;;;;8.01;64.69;97923.41;5014245;28;20049;-70
2023/04/01 02:11:35;;;;;;;116.50;18.20;;;;;;;8.19;64.55;97921.22;4982542;28;20057;-72
2023/04/01 02:14:06;;;;;;;141.80;18.17;;;;;;;7.99;64.97;97920.13;5030807;28;20447;-72
2023/04/01 02:16:59;;;;;;;80.78;17.95;;;;;;;8.12;64.88;97922.09;4976762;28;20119;-72
2023/04/01 02:19:30;;;;;;;140.33;19.37;;;;;;;7.89;65.07;97922.22;4982005;28;20041;-70
2023/04/01 02:21:59;;;;;;;47.80;16.90;;;;;;;7.91;65.66;97927.31;4982112;28;20468;-71
2023/04/01 02:24:28;;;;;;;197.27;20.87;;;;;;;7.85;65.47;97925.41;5014368;28;20119;-70
2023/04/01 02:26:54;;;;;;;56.63;15.00;;;;;;;7.42;65.67;97926.19;5014816;28;20049;-71
2023/04/01 02:29:25;;;;;;;410.77;25.93;;;;;;;7.80;65.70;97928.59;4981581;28;20044;-71
2023/04/01 02:31:51;;;;;;;155.47;19.63;;;;;;;7.62;65.68;97929.97;4997944;28;20107;-72
2023/04/01 02:34:19;;;;;;;179.90;20.30;;;;;;;7.70;65.77;97928.06;4965404;28;20053;-71
2023/04/01 02:36:45;;;;;;;152.00;20.73;;;;;;;7.53;66.10;97938.97;5001358;28;20049;-71
2023/04/01 02:39:11;;;;;;;52.63;18.33;;;;;;;7.40;66.09;97926.38;4982338;28;20049;-73
2023/04/01 02:41:44;;;;;;;55.83;18.90;;;;;;;8.01;66.42;97930.53;5014979;28;20380;-73
2023/04/01 02:44:12;;;;;;;61.77;18.87;;;;;;;7.89;65.67;97938.06;4998601;28;20049;-73
2023/04/01 02:46:39;;;;;;;41.93;17.53;;;;;;;7.67;65.60;97930.25;4998169;28;20037;-72
2023/04/01 02:49:05;;;;;;;41.13;17.53;;;;;;;7.82;65.46;97931.06;4998487;28;20095;-72
2023/04/01 02:51:33;;;;;;;39.30;16.63;;;;;;;8.24;65.02;97932.06;4998689;28;20053;-72
2023/04/01 02:53:59;;;;;;;99.07;19.33;;;;;;;7.85;64.13;97930.69;4998543;28;20061;-71
2023/04/01 02:56:25;;;;;;;50.33;18.20;;;;;;;7.84;64.28;97934.34;4982347;28;20056;-72
2023/04/01 02:58:52;;;;;;;45.30;16.57;;;;;;;7.86;64.24;97927.03;4982553;28;20203;-70
2023/04/01 03:01:18;;;;;;;35.47;16.07;;;;;;;7.76;64.26;97929.16;4998432;28;20365;-71
2023/04/01 03:03:44;;;;;;;82.97;19.20;;;;;;;7.59;64.64;97933.78;4982098;28;20046;-71
2023/04/01 03:06:12;;;;;;;62.13;17.13;;;;;;;7.76;64.96;97937.06;4982058;28;20056;-71
2023/04/01 03:08:38;;;;;;;52.33;18.77;;;;;;;7.70;65.09;97941.28;5031104;28;20116;-71
2023/04/01 03:11:05;;;;;;;149.33;20.23;;;;;;;7.65;65.24;97935.72;5014710;28;20049;-71
2023/04/01 03:13:34;;;;;;;51.60;17.93;;;;;;;7.34;65.67;97942.94;4999028;28;20045;-71
2023/04/01 03:15:59;;;;;;;47.07;17.70;;;;;;;7.40;65.86;97947.50;4998422;28;20072;-71
2023/04/01 03:18:25;;;;;;;150.97;20.03;;;;;;;7.30;66.15;97949.59;4982141;28;20045;-71
2023/04/01 03:20:52;;;;;;;91.80;17.73;;;;;;;7.43;66.39;97954.22;4998176;28;20219;-71
2023/04/01 03:23:19;;;;;;;85.63;18.83;;;;;;;7.34;66.72;97955.31;4981937;28;20046;-71
2023/04/01 03:25:45;;;;;;;128.37;17.83;;;;;;;7.50;66.43;97956.00;4998144;28;20044;-71
2023/04/01 03:28:12;;;;;;;71.50;17.77;;;;;;;7.24;67.12;97950.31;4998284;28;20056;-71
2023/04/01 03:30:38;;;;;;;78.60;17.20;;;;;;;7.46;66.77;97957.34;4998182;28;20424;-70
2023/04/01 03:33:04;;;;;;;48.40;15.70;;;;;;;7.47;66.04;97947.63;4997914;28;20063;-70
2023/04/01 03:35:32;;;;;;;83.97;17.53;;;;;;;7.64;66.14;97962.31;4998397;28;20467;-71
2023/04/01 03:37:58;;;;;;;46.03;17.10;;;;;;;7.40;65.76;97958.06;4981810;28;20056;-70
2023/04/01 03:40:25;;;;;;;53.93;15.77;;;;;;;7.41;66.00;97967.63;4981945;28;20086;-73
2023/04/01 03:42:52;;;;;;;50.80;15.37;;;;;;;7.30;66.02;97967.25;5014824;28;20049;-73
2023/04/01 03:45:19;;;;;;;43.53;14.17;;;;;;;7.42;66.91;97971.09;4982076;28;20067;-73
2023/04/01 03:47:47;;;;;;;59.43;15.23;;;;;;;7.09;67.05;97977.66;4981566;28;20394;-73
2023/04/01 03:50:13;;;;;;;51.33;15.53;;;;;;;7.25;67.16;97985.41;5030641;28;20080;-74
2023/04/01 03:52:39;;;;;;;97.53;16.27;;;;;;;7.20;66.96;97983.31;4981762;28;20045;-73
2023/04/01 03:55:06;;;;;;;72.30;16.37;;;;;;;7.34;67.10;97982.53;5012986;28;20053;-75
2023/04/01 03:57:33;;;;;;;146.10;16.20;;;;;;;7.14;67.43;97984.03;4998246;28;20562;-74
2023/04/01 04:00:08;;;;;;;199.00;18.63;;;;;;;7.34;67.37;97992.28;4985196;28;20049;-72
2023/04/01 04:02:39;;;;;;;183.33;18.47;;;;;;;7.22;67.72;97991.06;5018076;28;20054;-71
2023/04/01 04:05:07;;;;;;;93.00;16.40;;;;;;;7.16;67.34;97995.25;4984428;28;20060;-72
2023/04/01 04:07:35;;;;;;;84.07;17.17;;;;;;;7.50;67.72;97998.25;4945736;28;20062;-71
2023/04/01 04:10:05;;;;;;;95.87;17.90;;;;;;;7.39;67.37;97998.69;4977596;28;20077;-72
2023/04/01 04:12:32;;;;;;;86.30;17.10;;;;;;;7.39;67.08;98000.50;4977893;28;20093;-73
2023/04/01 04:14:59;;;;;;;50.63;16.97;;;;;;;7.43;67.71;97997.31;4961233;28;20400;-71
2023/04/01 04:17:25;;;;;;;165.57;20.03;;;;;;;7.20;67.46;98015.00;4929549;28;20922;-71
2023/04/01 04:19:51;;;;;;;49.57;16.27;;;;;;;7.22;67.35;98013.00;4929568;28;20069;-71
2023/04/01 04:22:17;;;;;;;158.83;18.20;;;;;;;7.24;67.62;98015.47;4929452;28;20437;-70
2023/04/01 04:24:43;;;;;;;86.07;15.57;;;;;;;7.19;67.61;98012.53;4945098;28;20065;-71
2023/04/01 04:27:13;;;;;;;88.87;16.03;;;;;;;7.27;67.65;98018.59;4980479;28;20583;-72
2023/04/01 04:30:03;;;;;;;41.03;14.68;;;;;;;7.54;67.39;98014.56;4994786;28;20050;-72
2023/04/01 04:32:30;;;;;;;204.67;18.50;;;;;;;7.56;67.44;98020.50;4964418;28;20119;-70
2023/04/01 04:34:56;;;;;;;121.13;16.97;;;;;;;7.33;66.94;98019.69;4948257;28;20053;-69
2023/04/01 04:37:22;;;;;;;156.70;17.60;;;;;;;7.36;67.11;98022.81;4981157;28;20041;-72
2023/04/01 04:39:48;;;;;;;51.40;15.60;;;;;;;7.33;67.29;98019.69;5000883;28;20045;-73
2023/04/01 04:42:14;;;;;;;238.80;20.00;;;;;;;7.37;67.34;98031.53;4984454;28;20490;-71
2023/04/01 04:44:40;;;;;;;247.77;20.53;;;;;;;7.40;67.09;98032.00;5000731;28;20546;-73
2023/04/01 04:47:06;;;;;;;103.93;15.90;;;;;;;7.44;67.03;98035.13;5005388;28;20029;-71
2023/04/01 04:49:32;;;;;;;139.37;17.00;;;;;;;7.55;67.06;98040.00;5052086;28;20463;-73
2023/04/01 04:52:03;;;;;;;162.57;17.07;;;;;;;7.60;66.77;98038.44;5020619;28;20479;-73
2023/04/01 04:54:30;;;;;;;123.97;15.97;;;;;;;7.50;67.05;98040.53;5019030;28;20040;-72
2023/04/01 04:56:59;;;;;;;136.57;18.00;;;;;;;7.62;66.60;98040.91;5035454;28;20040;-69
2023/04/01 04:59:31;;;;;;;49.40;16.03;;;;;;;7.72;66.21;98042.28;5006165;28;20041;-73
2023/04/01 05:02:23;;;;;;;104.77;16.07;;;;;;;7.77;65.96;98053.16;5039846;28;20077;-72
2023/04/01 05:04:49;;;;;;;139.40;16.90;;;;;;;7.80;65.43;98051.97;4988937;28;20432;-72
2023/04/01 05:07:15;;;;;;;96.43;17.00;;;;;;;7.84;65.98;98053.28;4996687;28;20144;-74
2023/04/01 05:09:41;;;;;;;87.57;15.73;;;;;;;7.87;65.64;98052.91;4939216;28;20121;-70
2023/04/01 05:12:07;;;;;;;39.37;15.03;;;;;;;7.93;65.73;98058.28;4927322;28;20047;-71
2023/04/01 05:14:55;;;;;;;93.90;17.03;;;;;;;8.03;64.67;98058.03;4929551;28;20158;-71
2023/04/01 05:17:21;;;;;;;76.97;15.47;;;;;;;8.09;64.61;98055.50;4912874;28;20063;-72
2023/04/01 05:19:48;;;;;;;67.17;15.70;;;;;;;8.11;64.38;98056.16;4913960;28;20051;-73
2023/04/01 05:22:24;;;;;;;54.43;14.73;;;;;;;8.47;64.82;98041.22;4912910;28;20040;-70
2023/04/01 05:25:01;;;;;;;38.80;15.20;;;;;;;8.22;64.30;98053.09;4920220;28;20061;-72
2023/04/01 05:27:28;;;;;;;117.83;18.03;;;;;;;8.30;63.75;98062.75;4927969;28;20058;-72
2023/04/01 05:29:54;;;;;;;157.73;18.13;;;;;;;8.30;63.38;98068.03;4929365;28;20137;-71
2023/04/01 05:32:39;;;;;;;165.87;19.70;;;;;;;8.32;63.36;98073.94;4945869;28;20103;-72
2023/04/01 05:35:06;;;;;;;116.87;18.57;;;;;;;8.48;63.52;98066.69;4927990;28;20161;-73
2023/04/01 05:37:34;;;;;;;143.03;19.30;;;;;;;8.71;63.63;98065.72;4950106;28;20050;-73
2023/04/01 05:40:03;;;;;;;83.23;16.13;;;;;;;8.52;63.13;98065.28;4950998;28;20052;-71
2023/04/01 05:42:29;;;;;;;51.77;17.00;;;;;;;8.39;63.39;98066.94;4937827;28;20152;-72
2023/04/01 05:44:55;;;;;;;139.73;17.47;;;;;;;8.48;62.97;98077.25;4950248;28;20055;-71
2023/04/01 05:48:01;;;;;;;256.90;19.77;;;;;;;8.39;62.97;98075.69;4943886;28;20051;-70
2023/04/01 05:50:30;;;;;;;99.10;16.90;;;;;;;8.40;63.06;98073.88;4920929;29;20058;-72
2023/04/01 05:52:57;;;;;;;234.57;19.23;;;;;;;8.36;63.12;98085.84;4935825;29;20287;-72
2023/04/01 05:55:24;;;;;;;113.93;17.37;;;;;;;8.58;63.37;98082.25;4920351;28;20063;-72
2023/04/01 05:57:51;;;;;;;127.77;17.03;;;;;;;8.48;62.95;98084.38;4936705;29;20193;-73
2023/04/01 06:00:19;;;;;;;103.07;18.20;;;;;;;8.57;62.75;98089.41;4936339;29;20055;-71
2023/04/01 06:02:46;;;;;;;62.17;16.57;;;;;;;8.69;62.54;98095.03;4920474;28;20054;-74
2023/04/01 06:05:12;;;;;;;52.37;16.57;;;;;;;8.84;62.41;98095.81;4951762;29;20051;-73
2023/04/01 06:07:39;;;;;;;60.07;16.23;;;;;;;8.88;61.59;98099.78;4951439;28;20401;-73
2023/04/01 06:10:17;;;;;;;105.53;19.53;;;;;;;9.47;61.48;98090.66;4925365;28;20055;-74
2023/04/01 06:12:57;;;;;;;84.40;16.50;;;;;;;9.43;61.33;98102.66;4956855;28;20046;-70
2023/04/01 06:15:26;;;;;;;69.27;16.27;;;;;;;9.39;61.47;98108.50;5002036;28;20123;-72
2023/04/01 06:18:10;;;;;;;35.20;15.80;;;;;;;9.49;61.92;98099.25;4980799;28;20042;-73
2023/04/01 06:20:49;;;;;;;49.83;16.70;;;;;;;8.99;60.65;98096.66;4996623;28;20045;-72
2023/04/01 06:23:28;;;;;;;39.53;16.63;;;;;;;9.67;60.93;98109.44;4980892;28;20049;-72
2023/04/01 06:26:30;;;;;;;32.65;15.38;;;;;;;9.85;60.38;98110.63;4978379;28;20050;-74
2023/04/01 06:29:20;;;;;;;31.13;15.13;;;;;;;9.99;59.93;98114.19;4978042;28;20044;-74
2023/04/01 06:32:24;;;;;;;35.53;15.17;;;;;;;10.07;59.61;98120.22;4978878;28;20100;-73
2023/04/01 06:35:21;;;;;;;34.83;15.48;;;;;;;10.14;59.37;98126.41;5006667;28;20056;-74
2023/04/01 06:38:01;;;;;;;33.90;15.30;;;;;;;9.98;60.09;98120.50;4979760;28;20111;-72
2023/04/01 06:41:05;;;;;;;28.38;14.00;;;;;;;10.36;59.51;98123.69;4980382;28;20045;-72
2023/04/01 06:44:06;;;;;;;31.08;14.40;;;;;;;10.69;59.02;98127.38;4980781;28;20053;-72
2023/04/01 06:47:45;;;;;;;25.85;13.00;;;;;;;10.49;58.02;98134.41;4968201;28;20046;-73
2023/04/01 06:50:37;;;;;;;34.50;13.88;;;;;;;10.15;58.97;98136.00;4950994;28;20062;-71
2023/04/01 06:53:28;;;;;;;29.80;14.38;;;;;;;9.65;58.61;98141.41;4960758;28;20114;-73
2023/04/01 06:56:32;;;;;;;30.52;14.30;;;;;;;9.97;58.81;98142.72;4988186;28;20038;-74
2023/04/01 06:59:27;;;;;;;26.25;12.70;;;;;;;10.53;59.24;98140.97;4963460;28;20123;-74
2023/04/01 07:01:57;;;;;;;28.73;13.98;;;;;;;10.52;57.75;98140.16;4994138;28;20053;-73
2023/04/01 07:04:30;;;;;;;31.70;14.48;;;;;;;10.80;57.33;98151.56;4994105;28;20531;-73
2023/04/01 07:07:10;;;;;;;34.78;16.75;;;;;;;10.85;57.42;98151.81;4977806;28;20038;-73
2023/04/01 07:09:50;;;;;;;27.88;13.90;;;;;;;11.30;56.11;98153.06;4963826;28;20144;-73
2023/04/01 07:12:38;;;;;;;30.05;13.23;;;;;;;11.21;54.67;98149.72;5010185;28;20180;-73
2023/04/01 07:15:26;;;;;;;30.98;12.95;;;;;;;11.95;54.46;98147.94;4991433;28;20092;-72
2023/04/01 07:17:56;;;;;;;34.80;15.82;;;;;;;12.45;52.83;98151.84;4997237;28;20056;-72
2023/04/01 07:20:28;;;;;;;27.08;14.85;;;;;;;12.92;51.21;98157.72;5013449;28;20045;-73
2023/04/01 07:22:57;;;;;;;28.45;14.75;;;;;;;12.90;49.98;98161.63;4980801;28;20400;-73
2023/04/01 07:25:48;;;;;;;27.08;13.60;;;;;;;13.11;49.01;98169.38;4982742;28;20060;-73
2023/04/01 07:28:32;;;;;;;24.27;12.18;;;;;;;12.84;49.19;98173.91;5029927;28;20048;-73
2023/04/01 07:31:22;;;;;;;26.40;13.55;;;;;;;12.92;48.99;98171.03;5013454;28;20045;-73
2023/04/01 07:34:13;;;;;;;24.30;13.00;;;;;;;12.56;49.51;98169.88;5033683;28;20073;-72
2023/04/01 07:37:02;;;;;;;27.98;13.23;;;;;;;12.85;49.48;98172.91;5001344;28;20068;-71
2023/04/01 07:40:05;;;;;;;22.92;12.30;;;;;;;13.24;48.82;98172.81;4999686;28;20111;-72
2023/04/01 07:43:01;;;;;;;23.55;11.30;;;;;;;13.69;48.52;98173.66;5001774;28;20053;-73
2023/04/01 07:46:12;;;;;;;21.05;10.85;;;;;;;13.85;45.96;98173.19;4999496;28;20115;-72
2023/04/01 07:48:53;;;;;;;23.50;12.15;;;;;;;14.17;46.18;98174.81;4985808;28;20073;-71
2023/04/01 07:51:32;;;;;;;20.20;11.13;;;;;;;14.31;46.26;98184.41;5000742;28;20072;-72
2023/04/01 07:54:09;;;;;;;28.83;11.68;;;;;;;14.50;45.65;98180.75;5000526;28;20045;-72
2023/04/01 07:57:13;;;;;;;18.33;11.07;;;;;;;15.10;43.49;98195.19;5017436;28;20049;-72
2023/04/01 08:00:07;;;;;;;18.42;10.27;;;;;;;15.66;41.43;98195.00;5018620;28;20107;-72
2023/04/01 08:03:38;;;;;;;17.70;9.20;;;;;;;17.86;37.96;98196.88;5003247;28;20460;-72
2023/04/01 08:06:17;;;;;;;17.73;10.25;;;;;;;18.10;36.92;98201.09;5017230;28;20048;-72
2023/04/01 08:09:01;;;;;;;20.15;10.55;;;;;;;18.37;36.92;98188.69;4984164;28;20530;-72
2023/04/01 08:11:51;;;;;;;15.57;10.05;;;;;;;18.49;35.81;98200.22;5017316;28;20132;-72
2023/04/01 08:15:23;;;;;;;18.13;9.82;;;;;;;18.52;36.74;98194.38;5003102;28;20049;-73
2023/04/01 08:18:15;;;;;;;16.15;9.73;;;;;;;18.99;34.75;98208.31;5001036;28;20140;-72
2023/04/01 08:21:02;;;;;;;13.98;8.02;;;;;;;20.02;33.14;98209.16;5033072;28;20075;-70
2023/04/01 08:23:47;;;;;;;14.73;8.70;;;;;;;20.46;32.11;98208.03;4983682;28;20041;-72
2023/04/01 08:26:36;;;;;;;14.60;8.75;;;;;;;21.09;30.97;98218.03;5000080;28;20120;-72
2023/04/01 08:29:06;;;;;;;12.27;8.48;;;;;;;20.09;30.62;98199.84;4999108;28;20136;-72
2023/04/01 08:31:43;;;;;;;;;;;;;;;21.52;30.57;98206.94;5017013;28;20056;-72
2023/04/01 08:34:18;;;;;;;17.95;8.77;;;;;;;21.62;28.75;98209.69;4983874;28;20023;-71
2023/04/01 08:36:50;;;;;;;14.50;7.63;;;;;;;21.12;29.14;98212.94;5016342;28;20057;-70
2023/04/01 08:39:21;;;;;;;18.38;8.20;;;;;;;20.50;30.63;98208.31;4992871;28;20050;-71
2023/04/01 08:42:11;;;;;;;14.38;7.28;;;;;;;22.56;27.37;98219.25;4977305;28;20046;-73
2023/04/01 08:45:00;;;;;;;9.00;6.55;;;;;;;24.83;24.82;98204.69;5008701;28;20046;-73
2023/04/01 08:47:57;;;;;;;13.50;7.28;;;;;;;26.22;22.96;98198.06;4976982;28;20061;-73
2023/04/01 08:50:42;;;;;;;9.57;6.65;;;;;;;27.25;22.19;98207.88;4992827;28;20448;-72
2023/04/01 08:53:42;;;;;;;11.82;7.82;;;;;;;27.63;20.97;98204.72;4993249;28;20496;-71
2023/04/01 08:56:31;;;;;;;9.63;7.05;;;;;;;28.90;20.02;98209.06;4993205;28;20046;-72
2023/04/01 08:59:22;;;;;;;9.52;6.47;;;;;;;31.08;17.09;98212.38;4992857;28;20050;-73
2023/04/01 09:02:04;;;;;;;11.00;6.93;;;;;;;31.91;16.81;98211.69;4992852;28;20042;-73
2023/04/01 09:05:18;;;;;;;11.20;6.90;;;;;;;33.83;14.62;98211.81;4936747;29;20063;-72
2023/04/01 09:08:25;;;;;;;9.80;6.50;;;;;;;32.55;14.95;98217.78;4921365;29;20047;-73
2023/04/01 09:10:56;;;;;;;10.50;7.15;;;;;;;31.06;16.37;98212.72;4953223;29;20051;-72
2023/04/01 09:14:03;;;;;;;7.82;6.40;;;;;;;33.25;14.33;98214.91;4923171;29;20047;-71
2023/04/01 09:16:49;;;;;;;11.45;6.72;;;;;;;32.28;14.46;98212.75;4934655;29;20063;-72
2023/04/01 09:19:33;;;;;;;9.85;7.20;;;;;;;31.35;14.94;98213.97;4952817;29;20051;-72
2023/04/01 09:22:20;;;;;;;7.20;5.35;;;;;;;30.74;15.15;98210.44;4997776;28;21091;-72
2023/04/01 09:25:15;;;;;;;9.52;5.70;;;;;;;33.17;13.42;98218.53;4975830;28;20046;-72
2023/04/01 09:27:47;;;;;;;8.55;5.30;;;;;;;34.86;12.72;98219.41;4992896;28;20531;-72
2023/04/01 09:30:33;;;;;;;8.35;5.93;;;;;;;35.70;11.71;98221.78;4976028;28;20495;-70
2023/04/01 09:33:36;;;;;;;8.90;5.85;;;;;;;35.98;11.52;98227.25;4992509;28;20048;-73
2023/04/01 09:36:11;;;;;;;9.93;6.28;;;;;;;33.49;12.66;98212.22;4976044;28;20042;-72
2023/04/01 09:38:54;;;;;;;9.27;5.88;;;;;;;32.76;13.26;98218.56;4975696;28;20043;-72
2023/04/01 09:41:30;;;;;;;7.05;5.28;;;;;;;31.49;13.78;98215.38;4994262;28;20188;-72
2023/04/01 09:44:09;;;;;;;6.55;5.72;;;;;;;29.19;15.69;98210.28;4983023;28;20400;-73
2023/04/01 09:47:20;;;;;;;9.60;5.57;;;;;;;29.33;15.87;98205.53;4980618;28;20175;-73
2023/04/01 09:50:07;;;;;;;11.75;7.35;;;;;;;30.11;14.58;98239.50;5011729;28;20042;-73
2023/04/01 09:53:08;;;;;;;8.43;6.10;;;;;;;27.60;16.00;98224.41;4979349;28;20064;-72
2023/04/01 09:55:56;;;;;;;11.48;7.40;;;;;;;26.94;17.62;98217.69;5010206;28;20492;-71
2023/04/01 09:59:03;;;;;;;8.10;5.38;;;;;;;26.71;17.32;98215.91;4978760;28;20092;-70
2023/04/01 10:01:58;;;;;;;7.20;5.20;;;;;;;26.82;17.62;98207.25;4951935;29;20046;-69
2023/04/01 10:05:12;;;;;;;10.48;5.80;;;;;;;28.85;16.28;98225.59;4974299;28;20215;-70
2023/04/01 10:07:49;;;;;;;;;;;;;;;30.53;14.27;98233.34;4901342;29;20139;-70
2023/04/01 10:10:24;;;;;;;7.03;5.10;;;;;;;30.62;14.63;98234.16;4885333;29;19973;-68
2023/04/01 10:13:06;;;;;;;8.95;5.28;;;;;;;29.71;15.04;98240.66;4900321;29;20143;-70
2023/04/01 10:15:53;;;;;;;9.20;5.88;;;;;;;28.47;15.74;98238.78;4888253;29;20209;-69
2023/04/01 10:18:56;;;;;;;7.88;4.35;;;;;;;27.74;16.06;98241.63;4982103;28;20103;-70
2023/04/01 10:21:57;;;;;;;9.70;5.70;;;;;;;26.07;18.07;98205.63;4961125;28;20056;-70
2023/04/01 10:24:33;;;;;;;7.97;5.03;;;;;;;27.58;17.26;98225.84;4993292;28;20193;-69
2023/04/01 10:27:31;;;;;;;9.90;5.53;;;;;;;27.89;16.86;98229.63;4977394;28;20072;-70
2023/04/01 10:30:31;;;;;;;9.85;5.30;;;;;;;27.88;16.99;98247.91;5009837;28;20060;-71
2023/04/01 10:33:21;;;;;;;13.18;5.10;;;;;;;28.69;15.91;98236.06;4977418;28;20057;-72
2023/04/01 10:36:05;;;;;;;7.50;4.93;;;;;;;29.14;15.24;98234.19;4977233;28;20052;-72
2023/04/01 10:38:46;;;;;;;8.90;5.28;;;;;;;30.01;14.63;98248.84;4960661;28;20042;-73
2023/04/01 10:41:15;;;;;;;6.22;4.25;;;;;;;30.51;14.45;98249.28;4952661;28;20140;-72
2023/04/01 10:44:12;;;;;;;7.28;4.80;;;;;;;30.32;14.25;98266.00;4967304;28;20520;-72
2023/04/01 10:46:57;;;;;;;5.95;4.40;;;;;;;30.38;14.32;98258.47;4997425;28;20053;-73
2023/04/01 10:49:38;;;;;;;6.25;4.72;;;;;;;30.25;14.47;98245.69;4965146;28;20120;-70
2023/04/01 10:52:26;;;;;;;5.65;4.20;;;;;;;30.25;14.03;98260.22;4968138;28;20555;-72
2023/04/01 10:55:56;;;;;;;10.13;4.25;;;;;;;31.27;13.90;98262.22;4990346;28;20038;-71
2023/04/01 10:59:06;;;;;;;4.43;4.03;;;;;;;28.97;14.24;98259.47;4989918;28;20049;-71
2023/04/01 11:01:44;;;;;;;6.72;4.70;;;;;;;30.16;14.18;98269.50;5017064;28;20045;-71
2023/04/01 11:04:59;;;;;;;6.97;4.47;;;;;;;30.51;14.05;98263.81;5035464;28;20045;-71
2023/04/01 11:07:52;;;;;;;8.77;4.57;;;;;;;30.91;13.71;98283.69;5032113;28;20060;-72
2023/04/01 11:10:36;;;;;;;8.85;4.82;;;;;;;30.25;14.09;98262.94;5015989;28;20045;-70
2023/04/01 11:13:11;;;;;;;15.32;5.32;;;;;;;29.85;14.39;98261.31;5032540;28;20052;-72
2023/04/01 11:16:15;;;;;;;8.75;5.65;;;;;;;29.01;14.82;98254.19;5004132;28;20472;-72
2023/04/01 11:19:23;;;;;;;8.75;4.75;;;;;;;26.84;16.26;98247.81;4986672;28;20488;-71
2023/04/01 11:21:54;;;;;;;10.35;5.20;;;;;;;25.33;18.12;98248.84;4990979;28;20049;-72
2023/04/01 11:24:47;;;;;;;8.38;5.15;;;;;;;24.35;19.17;98256.31;5013297;28;20041;-72
2023/04/01 11:27:47;;;;;;;7.75;5.13;;;;;;;22.30;21.42;98238.34;5015597;28;20049;-72
2023/04/01 11:30:22;;;;;;;8.93;5.38;;;;;;;21.30;22.83;98257.59;4997436;28;20115;-72
2023/04/01 11:33:00;;;;;;;6.53;4.35;;;;;;;20.19;23.52;98274.59;4996651;28;20052;-72
2023/04/01 11:35:36;;;;;;;10.40;4.65;;;;;;;19.94;24.32;98248.16;4960574;28;20049;-73
2023/04/01 11:38:44;;;;;;;7.63;4.40;;;;;;;19.94;23.84;98258.13;4976363;28;20077;-72
2023/04/01 11:41:41;;;;;;;10.75;4.90;;;;;;;19.75;24.21;98254.09;4950227;29;20047;-71
2023/04/01 11:44:29;;;;;;;7.53;4.50;;;;;;;19.05;24.91;98237.72;4937127;29;20067;-72
2023/04/01 11:46:54;;;;;;;7.45;4.47;;;;;;;18.42;25.52;98245.25;4950549;29;20051;-73
2023/04/01 11:50:02;;;;;;;9.75;5.03;;;;;;;18.85;25.96;98237.38;4934671;28;20074;-71
2023/04/01 11:53:04;;;;;;;13.80;4.60;;;;;;;19.01;26.41;98238.44;4956770;28;20049;-72
2023/04/01 11:55:43;;;;;;;13.02;4.55;;;;;;;19.15;25.96;98247.81;4972932;28;20401;-72
2023/04/01 11:58:44;;;;;;;8.52;4.35;;;;;;;18.97;26.17;98253.47;4956905;28;20473;-72
2023/04/01 12:01:20;;;;;;;17.02;5.07;;;;;;;18.90;26.95;98250.94;4939094;28;20370;-73
2023/04/01 12:04:07;;;;;;;7.32;4.20;;;;;;;18.67;27.11;98261.00;4957252;28;20527;-72
2023/04/01 12:07:00;;;;;;;11.90;5.18;;;;;;;18.68;27.42;98259.97;4958906;28;20069;-72
2023/04/01 12:09:41;;;;;;;17.60;5.20;;;;;;;18.74;27.56;98259.81;4976765;28;20077;-72
2023/04/01 12:12:26;;;;;;;;;;;;;;;18.84;27.47;98272.59;4992734;28;20089;-72
2023/04/01 12:14:57;;;;;;;8.57;4.70;;;;;;;18.14;27.95;98280.97;4993315;28;19939;-71
2023/04/01 12:18:00;;;;;;;10.43;4.97;;;;;;;18.09;28.34;98274.69;4993764;28;20041;-72
2023/04/01 12:20:41;;;;;;;16.77;7.13;;;;;;;17.91;29.08;98275.69;4980702;28;20053;-72